Langara, Canada
Current Conditions -  °F | °C
As of 8:16 AM on Monday 26 Jan 2015 (Local Time) from PAHY Reporting Station
Overcast Overcast  
Wind Chill: 34°   Ceiling: 2200
Heat Index: 37°   Visibility: 10mi
Dew Point: 32°   Wind: 5mph
Humidity: 81%   Direction: 350°N
Pressure: 29.86"   Gusts: NA
Location:  54.23°N, 133°W
Report Text: PAHY 261616Z AUTO 35004KT 10SM OVC022 03/00 A2986 RMK AO1
Loading
Personal Weather Stations






























Interactive Weather Map New forecast layout! Learn more

10-Day Weather Forecast

Advertisements
Track Severe Weather on mobile